Time;durP1;ratioP1;P1;durP2;ratioP2;P2;SDS_P1;SDS_P2;PMS_P1;PMS_P2;Temp;Humidity;BMP_temperature;BMP_pressure;BME280_temperature;BME280_humidity;BME280_pressure;Samples;Min_cycle;Max_cycle;Signal;HPM_P1;HPM_P2
2022/07/20 00:00:09;;;;;;;5.78;3.03;;;;;;;24.05;46.02;98407.44;4133057;28;20233;-54
2022/07/20 00:02:11;;;;;;;3.20;2.55;;;;;;;24.03;46.40;98409.75;4125202;28;20673;-52
2022/07/20 00:04:12;;;;;;;2.65;2.45;;;;;;;24.01;46.25;98406.47;4119535;28;20205;-51
2022/07/20 00:06:14;;;;;;;2.85;2.55;;;;;;;23.99;45.95;98414.38;4124092;28;20220;-51
2022/07/20 00:11:19;;;;;;;6.57;2.20;;;;;;;23.95;46.10;98412.59;4115511;28;20671;-52
2022/07/20 00:12:58;;;;;;;3.40;2.15;;;;;;;23.89;46.32;98413.97;4134393;28;20205;-51
2022/07/20 00:15:03;;;;;;;4.45;3.17;;;;;;;23.88;45.98;98411.50;4104525;28;20209;-52
2022/07/20 00:17:05;;;;;;;9.23;2.60;;;;;;;23.85;46.24;98419.38;4124878;28;20208;-54
2022/07/20 00:19:07;;;;;;;4.03;2.78;;;;;;;23.86;46.07;98420.22;4109484;28;20221;-51
2022/07/20 00:21:08;;;;;;;3.55;2.67;;;;;;;23.84;46.29;98420.53;4125648;28;20217;-51
2022/07/20 00:23:10;;;;;;;2.78;2.47;;;;;;;23.78;46.45;98418.25;4119622;28;20285;-54
2022/07/20 00:25:12;;;;;;;3.53;2.58;;;;;;;23.69;46.20;98422.28;4117979;28;20221;-52
2022/07/20 00:27:13;;;;;;;2.70;2.50;;;;;;;23.66;46.45;98420.16;4122405;28;20766;-53
2022/07/20 00:29:15;;;;;;;3.78;3.28;;;;;;;23.63;46.58;98426.44;4127379;28;20280;-53
2022/07/20 00:31:18;;;;;;;5.85;2.47;;;;;;;23.59;46.59;98426.28;4132095;28;20263;-53
2022/07/20 00:33:20;;;;;;;2.78;2.33;;;;;;;23.55;46.63;98424.47;4124851;28;20648;-53
2022/07/20 00:35:21;;;;;;;5.85;3.00;;;;;;;23.54;46.81;98425.63;4109673;28;20214;-52
2022/07/20 00:37:23;;;;;;;3.85;2.58;;;;;;;23.48;46.94;98429.78;4125600;28;20200;-51
2022/07/20 00:39:25;;;;;;;3.88;2.83;;;;;;;23.45;47.20;98417.28;4125731;28;20268;-53
2022/07/20 00:41:26;;;;;;;3.40;2.45;;;;;;;23.45;47.01;98424.88;4121331;28;20274;-52
2022/07/20 00:43:57;;;;;;;3.45;2.85;;;;;;;23.38;46.94;98413.41;4123344;28;20902;-54
2022/07/20 00:45:59;;;;;;;3.58;2.90;;;;;;;23.34;47.00;98412.41;4136848;28;20253;-53
2022/07/20 00:48:01;;;;;;;3.70;2.38;;;;;;;23.30;46.94;98417.06;4120547;28;20220;-53
2022/07/20 00:50:03;;;;;;;10.65;2.78;;;;;;;23.29;46.92;98407.84;4138331;28;20256;-52
2022/07/20 00:52:05;;;;;;;3.05;2.22;;;;;;;23.27;47.02;98409.31;4137370;28;20954;-53
2022/07/20 00:54:08;;;;;;;4.07;2.67;;;;;;;23.27;47.13;98414.91;4120848;28;20273;-54
2022/07/20 00:56:11;;;;;;;7.78;3.20;;;;;;;23.24;47.31;98412.81;4135531;28;20362;-53
2022/07/20 00:58:13;;;;;;;3.33;3.08;;;;;;;23.22;47.28;98404.75;4133664;28;21054;-54
2022/07/20 01:00:15;;;;;;;3.03;2.67;;;;;;;23.18;47.86;98402.97;4118159;28;20229;-52
2022/07/20 01:02:17;;;;;;;3.40;3.10;;;;;;;23.12;47.87;98404.28;4109168;28;20597;-54
2022/07/20 01:04:19;;;;;;;3.60;2.78;;;;;;;23.04;48.05;98407.91;4121852;28;20226;-52
2022/07/20 01:06:20;;;;;;;4.75;2.83;;;;;;;22.97;48.25;98410.41;4120959;28;20589;-54
2022/07/20 01:08:24;;;;;;;3.65;2.55;;;;;;;22.93;48.74;98410.25;4121473;28;20268;-52
2022/07/20 01:10:26;;;;;;;5.18;2.80;;;;;;;22.92;48.89;98407.78;4127042;28;20292;-51
2022/07/20 01:12:28;;;;;;;4.13;3.10;;;;;;;22.87;49.27;98407.94;4122154;28;20764;-52
2022/07/20 01:14:30;;;;;;;2.95;2.67;;;;;;;22.86;49.21;98406.31;4123100;28;20379;-52
2022/07/20 01:16:33;;;;;;;4.20;2.70;;;;;;;22.80;49.44;98402.06;4139618;28;20217;-52
2022/07/20 01:18:35;;;;;;;3.38;3.08;;;;;;;22.78;49.19;98398.78;4137101;28;20208;-52
2022/07/20 01:20:36;;;;;;;3.10;2.42;;;;;;;22.80;49.31;98396.47;4122869;28;20230;-53
2022/07/20 01:22:38;;;;;;;4.18;3.22;;;;;;;22.81;49.76;98398.13;4123853;28;20209;-52
2022/07/20 01:24:40;;;;;;;4.70;3.33;;;;;;;22.78;49.72;98404.38;4120918;28;20484;-51
2022/07/20 01:26:43;;;;;;;4.50;2.95;;;;;;;22.75;49.39;98405.03;4119329;28;20202;-52
2022/07/20 01:28:45;;;;;;;3.08;2.88;;;;;;;22.70;49.71;98403.22;4126948;28;20240;-52
2022/07/20 01:30:48;;;;;;;3.53;2.63;;;;;;;22.68;49.59;98401.91;4138991;28;20256;-52
2022/07/20 01:32:50;;;;;;;3.78;2.78;;;;;;;22.64;50.02;98406.53;4127695;28;20233;-52
2022/07/20 01:34:51;;;;;;;5.75;3.30;;;;;;;22.64;49.64;98406.53;4126997;28;20220;-53
2022/07/20 01:36:53;;;;;;;3.17;2.47;;;;;;;22.62;49.80;98401.28;4121368;28;20264;-52
2022/07/20 01:38:55;;;;;;;4.13;2.72;;;;;;;22.62;49.80;98403.22;4136933;28;20252;-52
2022/07/20 01:40:58;;;;;;;11.80;3.00;;;;;;;22.59;50.02;98407.53;4122864;28;20256;-52
2022/07/20 01:42:59;;;;;;;2.83;2.28;;;;;;;22.56;50.00;98407.38;4118784;28;20205;-51
2022/07/20 01:45:01;;;;;;;4.63;3.10;;;;;;;22.52;49.64;98406.38;4135148;28;20201;-53
2022/07/20 01:47:03;;;;;;;3.10;2.65;;;;;;;22.49;49.84;98412.59;4126283;28;20666;-52
2022/07/20 01:49:05;;;;;;;7.45;2.60;;;;;;;22.48;49.92;98408.19;4122820;28;20647;-53
2022/07/20 01:51:06;;;;;;;4.13;3.10;;;;;;;22.46;50.59;98404.91;4120956;28;20234;-51
2022/07/20 01:53:08;;;;;;;5.05;4.00;;;;;;;22.42;50.41;98406.66;4121228;28;20201;-52
2022/07/20 01:55:10;;;;;;;3.95;2.88;;;;;;;22.37;50.74;98412.44;4122087;28;20213;-51
2022/07/20 01:57:12;;;;;;;3.95;3.55;;;;;;;22.33;50.72;98417.03;4119114;28;20206;-52
2022/07/20 01:59:14;;;;;;;3.83;3.53;;;;;;;22.30;50.93;98412.13;4121047;28;20773;-54
2022/07/20 02:01:16;;;;;;;3.08;2.88;;;;;;;22.28;50.74;98422.75;4135222;28;20311;-52
2022/07/20 02:03:19;;;;;;;3.67;2.90;;;;;;;22.24;50.96;98419.81;4135087;28;20708;-51
2022/07/20 02:05:20;;;;;;;3.63;3.33;;;;;;;22.21;50.98;98422.44;4121070;28;20213;-52
2022/07/20 02:07:22;;;;;;;4.50;2.70;;;;;;;22.16;51.06;98414.22;4121160;28;20572;-52
2022/07/20 02:09:24;;;;;;;4.35;3.13;;;;;;;22.12;50.94;98414.06;4126027;28;20218;-53
2022/07/20 02:11:25;;;;;;;4.18;2.60;;;;;;;22.09;50.75;98413.88;4137988;28;20236;-54
2022/07/20 02:13:27;;;;;;;4.57;2.92;;;;;;;22.08;50.69;98412.25;4124039;28;20270;-53
2022/07/20 02:17:49;;;;;;;4.70;3.50;;;;;;;22.04;50.91;98416.84;4134764;28;20219;-54
2022/07/20 02:19:50;;;;;;;3.70;3.22;;;;;;;22.03;51.02;98409.66;4118708;28;20268;-53
2022/07/20 02:21:52;;;;;;;3.38;2.90;;;;;;;22.05;50.98;98418.50;4118658;28;21024;-55
2022/07/20 02:23:54;;;;;;;2.92;2.70;;;;;;;22.05;50.76;98418.50;4136711;28;20212;-52
2022/07/20 02:25:56;;;;;;;5.28;3.08;;;;;;;22.03;51.12;98412.44;4121957;28;20202;-51
2022/07/20 02:27:57;;;;;;;9.95;3.20;;;;;;;21.99;51.06;98415.06;4118689;28;20210;-52
2022/07/20 02:29:59;;;;;;;6.53;3.40;;;;;;;21.98;50.87;98412.59;4103699;28;20242;-52
2022/07/20 02:32:01;;;;;;;3.58;3.28;;;;;;;21.98;50.91;98412.59;4124297;28;20268;-52
2022/07/20 02:34:03;;;;;;;5.13;3.78;;;;;;;21.98;50.69;98418.97;4137026;28;20209;-53
2022/07/20 02:36:05;;;;;;;3.55;3.25;;;;;;;21.97;50.87;98422.09;4116429;28;20203;-52
2022/07/20 02:38:06;;;;;;;4.07;3.65;;;;;;;21.94;51.01;98417.16;4135656;28;20363;-52
2022/07/20 02:40:09;;;;;;;3.80;2.70;;;;;;;21.89;51.22;98411.72;4119366;28;20288;-51
2022/07/20 02:42:10;;;;;;;3.88;3.05;;;;;;;21.82;51.39;98405.81;4135088;28;20655;-52
2022/07/20 02:44:12;;;;;;;3.92;3.38;;;;;;;21.78;51.35;98407.63;4111639;28;20209;-52
2022/07/20 02:46:14;;;;;;;3.35;3.05;;;;;;;21.82;51.59;98405.81;4124225;28;20217;-52
2022/07/20 02:48:16;;;;;;;5.50;3.40;;;;;;;21.80;51.43;98413.69;4125518;28;20293;-52
2022/07/20 02:50:17;;;;;;;3.67;3.38;;;;;;;21.80;51.44;98400.59;4118785;28;20226;-53
2022/07/20 02:52:19;;;;;;;5.30;3.78;;;;;;;21.78;51.18;98399.28;4121315;28;20229;-52
2022/07/20 02:54:23;;;;;;;3.67;3.38;;;;;;;21.69;51.36;98402.03;4120924;28;20241;-52
2022/07/20 02:56:25;;;;;;;7.28;4.07;;;;;;;21.69;50.93;98398.41;4108490;28;20241;-52
2022/07/20 02:58:28;;;;;;;3.47;3.17;;;;;;;21.69;50.89;98404.00;4127517;28;20609;-53
2022/07/20 03:00:31;;;;;;;3.83;3.33;;;;;;;21.67;51.04;98406.28;4124029;28;20573;-52
2022/07/20 03:02:33;;;;;;;5.30;3.88;;;;;;;21.66;50.88;98404.63;4137992;28;20669;-52
2022/07/20 03:04:34;;;;;;;3.65;3.35;;;;;;;21.60;51.13;98408.69;4127460;28;20213;-52
2022/07/20 03:06:36;;;;;;;5.43;3.88;;;;;;;21.54;51.25;98404.44;4118815;28;20214;-52
2022/07/20 03:08:38;;;;;;;5.28;3.95;;;;;;;21.53;51.23;98411.16;4121703;28;20658;-52
2022/07/20 03:10:39;;;;;;;4.40;3.67;;;;;;;21.50;51.02;98417.38;4128120;28;20286;-52
2022/07/20 03:12:41;;;;;;;5.32;3.45;;;;;;;21.51;51.16;98425.38;4126836;28;20272;-52
2022/07/20 03:14:46;;;;;;;4.53;4.13;;;;;;;21.49;51.27;98424.06;4122161;28;20209;-51
2022/07/20 03:16:51;;;;;;;4.38;3.53;;;;;;;21.44;51.62;98413.09;4118843;28;20213;-52
2022/07/20 03:18:53;;;;;;;3.95;3.65;;;;;;;21.41;51.92;98417.34;4118364;28;20198;-52
2022/07/20 03:20:55;;;;;;;3.85;3.55;;;;;;;21.38;51.55;98426.31;4121425;28;20706;-53
2022/07/20 03:22:57;;;;;;;5.10;4.22;;;;;;;21.36;51.82;98422.22;4122313;28;20563;-52
2022/07/20 03:24:59;;;;;;;7.55;3.75;;;;;;;21.37;51.82;98418.31;4124535;28;20316;-52
2022/07/20 03:27:01;;;;;;;6.65;4.03;;;;;;;21.35;51.86;98426.16;4127338;28;20264;-51
2022/07/20 03:29:03;;;;;;;4.22;3.83;;;;;;;21.34;51.86;98435.66;4115670;28;20230;-53
2022/07/20 03:31:05;;;;;;;3.85;3.50;;;;;;;21.35;51.87;98442.84;4113527;28;20230;-52
2022/07/20 03:33:06;;;;;;;4.18;3.42;;;;;;;21.36;52.21;98445.31;4119424;28;20232;-52
2022/07/20 03:35:08;;;;;;;4.07;3.72;;;;;;;21.34;52.23;98441.22;4137644;28;20205;-53
2022/07/20 03:37:10;;;;;;;3.45;3.15;;;;;;;21.27;52.44;98449.22;4120307;28;20205;-51
2022/07/20 03:39:12;;;;;;;4.45;3.85;;;;;;;21.21;52.76;98447.69;4139573;28;20201;-53
2022/07/20 03:41:13;;;;;;;4.13;3.63;;;;;;;21.17;52.19;98452.28;4119445;28;20316;-51
2022/07/20 03:43:15;;;;;;;5.13;3.42;;;;;;;21.14;52.53;98450.13;4122717;28;20201;-52
2022/07/20 03:45:17;;;;;;;7.65;4.03;;;;;;;21.07;53.03;98455.34;4124942;28;20214;-51
2022/07/20 03:47:27;;;;;;;5.40;3.88;;;;;;;21.10;52.81;98449.16;4117198;28;20244;-52
2022/07/20 03:49:29;;;;;;;5.38;4.20;;;;;;;21.13;52.62;98451.28;4122048;28;20661;-52
2022/07/20 03:51:30;;;;;;;5.05;3.83;;;;;;;21.11;52.86;98453.56;4121965;28;20237;-52
2022/07/20 03:53:32;;;;;;;7.82;4.13;;;;;;;21.09;52.84;98450.25;4136935;28;20232;-52
2022/07/20 03:55:41;;;;;;;4.93;4.38;;;;;;;21.09;52.69;98455.81;4122476;28;20225;-51
2022/07/20 03:57:43;;;;;;;7.15;4.22;;;;;;;21.06;52.76;98450.91;4120300;28;20214;-52
2022/07/20 03:59:44;;;;;;;6.25;4.57;;;;;;;21.05;52.85;98444.50;4138626;28;20229;-53
2022/07/20 04:01:46;;;;;;;4.53;4.13;;;;;;;21.03;52.88;98451.53;4136471;28;20341;-52
2022/07/20 04:03:48;;;;;;;4.95;4.55;;;;;;;21.01;52.88;98448.25;4134718;28;20714;-52
2022/07/20 04:05:49;;;;;;;4.70;4.30;;;;;;;20.99;52.86;98450.53;4135161;28;20253;-52
2022/07/20 04:07:51;;;;;;;6.82;4.05;;;;;;;20.98;52.71;98448.91;4120327;28;20248;-52
2022/07/20 04:09:53;;;;;;;5.78;4.30;;;;;;;20.97;52.69;98459.19;4123278;28;20217;-53
2022/07/20 04:11:54;;;;;;;5.00;4.32;;;;;;;20.99;52.86;98456.09;4135839;28;21003;-52
2022/07/20 04:13:57;;;;;;;6.85;4.70;;;;;;;20.98;52.57;98460.84;4125285;28;20210;-52
2022/07/20 04:15:59;;;;;;;7.30;4.60;;;;;;;20.98;52.64;98457.25;4118399;28;20670;-53
2022/07/20 04:18:00;;;;;;;5.38;4.88;;;;;;;20.98;53.02;98465.59;4119513;28;20705;-52
2022/07/20 04:20:04;;;;;;;5.03;4.38;;;;;;;20.99;53.15;98461.69;4133157;28;20299;-52
2022/07/20 04:22:06;;;;;;;5.28;4.78;;;;;;;21.00;53.15;98457.75;4121424;28;20711;-52
2022/07/20 04:24:08;;;;;;;5.20;4.75;;;;;;;21.00;53.18;98464.16;4118535;28;20206;-53
2022/07/20 04:26:10;;;;;;;8.25;4.88;;;;;;;20.98;53.15;98462.81;4118153;28;20269;-52
2022/07/20 04:28:12;;;;;;;4.97;4.00;;;;;;;21.00;52.86;98455.81;4134016;28;20264;-51
2022/07/20 04:30:14;;;;;;;5.25;4.25;;;;;;;21.01;52.90;98456.59;4136699;28;20229;-52
2022/07/20 04:32:16;;;;;;;4.97;3.97;;;;;;;21.03;52.83;98465.44;4119550;28;20260;-52
2022/07/20 04:34:18;;;;;;;5.18;4.70;;;;;;;21.03;52.96;98448.75;4120781;28;20209;-52
2022/07/20 04:36:20;;;;;;;5.93;4.55;;;;;;;21.02;53.31;98455.47;4135280;28;20263;-52
2022/07/20 04:38:22;;;;;;;5.38;4.85;;;;;;;20.99;53.65;98462.47;4117942;28;22413;-53
2022/07/20 04:40:24;;;;;;;6.40;3.85;;;;;;;21.01;53.43;98459.38;4134836;28;20228;-52
2022/07/20 04:42:25;;;;;;;4.68;4.25;;;;;;;21.03;53.25;98462.66;4122487;28;20661;-53
2022/07/20 04:44:27;;;;;;;4.72;4.43;;;;;;;21.06;53.05;98467.59;4120403;28;20645;-51
2022/07/20 04:46:29;;;;;;;4.07;3.65;;;;;;;21.07;52.97;98466.47;4123517;28;20677;-52
2022/07/20 04:48:30;;;;;;;6.03;3.72;;;;;;;21.10;53.40;98474.19;4122176;28;20592;-52
2022/07/20 04:50:32;;;;;;;4.53;4.22;;;;;;;21.10;53.53;98469.44;4119902;28;20233;-52
2022/07/20 04:52:34;;;;;;;9.70;4.60;;;;;;;21.12;53.80;98477.47;4120115;28;20306;-52
2022/07/20 04:54:36;;;;;;;5.07;4.68;;;;;;;21.12;53.82;98478.28;4119316;28;20671;-51
2022/07/20 04:56:37;;;;;;;7.20;4.55;;;;;;;21.14;53.95;98476.00;4124608;28;20214;-51
2022/07/20 04:58:39;;;;;;;5.13;4.78;;;;;;;21.15;54.23;98482.38;4121533;28;20599;-51
2022/07/20 05:00:41;;;;;;;5.55;4.45;;;;;;;21.20;54.08;98482.25;4117379;28;20222;-52
2022/07/20 05:02:42;;;;;;;4.72;4.35;;;;;;;21.23;53.98;98478.84;4136825;28;20197;-51
2022/07/20 05:04:47;;;;;;;5.25;3.95;;;;;;;21.27;54.11;98485.41;4122463;28;20213;-55
2022/07/20 05:06:49;;;;;;;3.97;3.53;;;;;;;21.31;53.96;98491.97;4123895;28;20412;-51
2022/07/20 05:08:51;;;;;;;4.00;3.70;;;;;;;21.37;53.94;98490.72;4121754;28;20213;-52
2022/07/20 05:10:54;;;;;;;5.00;3.97;;;;;;;21.36;53.83;98489.88;4125390;28;20237;-52
2022/07/20 05:12:56;;;;;;;6.75;4.15;;;;;;;21.40;53.68;98484.47;4120419;28;20720;-51
2022/07/20 05:14:57;;;;;;;4.25;3.85;;;;;;;21.44;53.63;98491.06;4106533;28;20225;-52
2022/07/20 05:16:59;;;;;;;4.85;4.15;;;;;;;21.48;53.59;98492.03;4124699;28;20717;-52
2022/07/20 05:19:01;;;;;;;6.22;4.30;;;;;;;21.53;53.62;98489.13;4120183;28;20206;-52
2022/07/20 05:21:03;;;;;;;5.13;4.63;;;;;;;21.53;53.37;98484.41;4137773;28;21032;-51
2022/07/20 05:23:05;;;;;;;5.72;3.50;;;;;;;21.57;53.77;98484.56;4123353;28;20206;-53
2022/07/20 05:25:07;;;;;;;4.07;3.67;;;;;;;21.61;53.55;98485.53;4127607;28;20589;-51
2022/07/20 05:27:09;;;;;;;5.10;4.28;;;;;;;21.68;53.28;98492.34;4125427;28;20592;-51
2022/07/20 05:29:11;;;;;;;6.45;4.20;;;;;;;21.74;53.34;98488.25;4122468;28;20664;-52
2022/07/20 05:31:16;;;;;;;3.95;3.55;;;;;;;21.84;52.83;98489.94;4124988;28;20849;-53
2022/07/20 05:33:18;;;;;;;4.03;3.38;;;;;;;21.92;52.31;98478.78;4112062;28;20229;-52
2022/07/20 05:35:20;;;;;;;4.55;4.15;;;;;;;22.03;52.01;98494.06;4118527;28;20280;-53
2022/07/20 05:37:22;;;;;;;5.47;4.70;;;;;;;21.96;53.05;98492.91;4125148;28;20212;-53
2022/07/20 05:39:24;;;;;;;5.35;4.88;;;;;;;22.08;53.50;98490.31;4120737;28;20256;-53
2022/07/20 05:41:26;;;;;;;7.22;4.63;;;;;;;22.19;53.67;98497.22;4119717;28;20296;-53
2022/07/20 05:43:27;;;;;;;5.03;4.45;;;;;;;22.33;53.36;98497.91;4128395;28;20288;-53
2022/07/20 05:45:29;;;;;;;5.13;4.72;;;;;;;22.43;53.36;98500.41;4112180;28;20341;-53
2022/07/20 05:47:31;;;;;;;7.88;5.07;;;;;;;22.53;52.75;98503.69;4135788;28;20251;-53
2022/07/20 05:49:33;;;;;;;26.02;5.47;;;;;;;22.64;52.93;98502.19;4121683;28;20577;-53
2022/07/20 05:51:35;;;;;;;12.00;4.97;;;;;;;22.80;52.15;98497.78;4120551;28;20206;-52
2022/07/20 05:53:37;;;;;;;5.80;4.97;;;;;;;22.87;51.09;98511.22;4129522;28;20225;-53
2022/07/20 05:55:41;;;;;;;7.13;4.95;;;;;;;22.90;50.82;98507.78;4122854;28;20377;-53
2022/07/20 05:57:43;;;;;;;7.88;5.05;;;;;;;23.22;51.03;98504.47;4107385;28;20201;-52
2022/07/20 05:59:45;;;;;;;10.50;5.18;;;;;;;23.35;50.44;98509.03;4120270;28;20233;-52
2022/07/20 06:01:47;;;;;;;7.60;4.38;;;;;;;23.51;49.28;98510.16;4121872;28;20988;-52
2022/07/20 06:03:49;;;;;;;6.80;4.70;;;;;;;23.73;48.80;98515.47;4127548;28;20309;-52
2022/07/20 06:05:50;;;;;;;9.48;5.35;;;;;;;23.84;47.45;98507.19;4123648;28;20221;-53
2022/07/20 06:07:56;;;;;;;6.10;4.63;;;;;;;23.99;46.92;98520.63;4118235;28;20779;-53
2022/07/20 06:09:58;;;;;;;5.47;4.97;;;;;;;24.07;46.49;98522.56;4124353;28;20238;-53
2022/07/20 06:12:00;;;;;;;8.00;5.07;;;;;;;24.32;47.27;98523.59;4123195;28;20198;-52
2022/07/20 06:14:02;;;;;;;5.78;5.18;;;;;;;24.37;45.47;98527.00;4132891;28;20214;-53
2022/07/20 06:16:04;;;;;;;5.22;4.82;;;;;;;24.59;45.45;98535.09;4125935;28;20217;-53
2022/07/20 06:18:07;;;;;;;20.42;7.20;;;;;;;24.68;45.15;98533.06;4133049;28;20208;-52
2022/07/20 06:20:13;;;;;;;6.60;5.45;;;;;;;24.88;44.98;98535.03;4121273;28;20238;-53
2022/07/20 06:22:15;;;;;;;13.63;5.32;;;;;;;24.97;45.03;98530.19;4122758;28;20206;-53
2022/07/20 06:24:17;;;;;;;8.32;4.93;;;;;;;25.18;45.38;98536.56;4120821;28;21196;-53
2022/07/20 06:26:21;;;;;;;4.60;4.20;;;;;;;25.28;44.26;98540.94;4127865;28;20981;-53
2022/07/20 06:28:23;;;;;;;10.13;5.80;;;;;;;25.39;43.98;98530.97;4132701;28;20201;-53
2022/07/20 06:30:25;;;;;;;9.90;6.00;;;;;;;25.48;44.12;98535.31;4121730;28;20764;-52
2022/07/20 06:32:27;;;;;;;5.40;4.90;;;;;;;25.62;44.02;98540.56;4105775;28;20241;-53
2022/07/20 06:34:29;;;;;;;7.65;4.80;;;;;;;25.70;43.69;98534.03;4104444;28;20215;-53
2022/07/20 06:36:30;;;;;;;14.80;5.10;;;;;;;25.72;43.22;98529.72;4106296;28;20218;-53
2022/07/20 06:38:33;;;;;;;9.60;5.53;;;;;;;25.85;44.08;98527.78;4121272;28;20209;-52
2022/07/20 06:40:35;;;;;;;5.47;5.05;;;;;;;26.12;43.94;98539.16;4123237;28;20236;-53
2022/07/20 06:42:37;;;;;;;5.93;5.32;;;;;;;26.27;43.76;98523.59;4121690;28;20225;-52
2022/07/20 06:44:39;;;;;;;5.70;5.03;;;;;;;26.27;43.96;98530.00;4122905;28;20205;-53
2022/07/20 06:46:40;;;;;;;8.73;5.35;;;;;;;26.50;43.91;98536.78;4120859;28;20209;-52
2022/07/20 06:48:42;;;;;;;5.93;4.70;;;;;;;26.66;43.88;98532.09;4126833;28;20210;-52
2022/07/20 06:50:44;;;;;;;7.68;5.57;;;;;;;26.84;43.59;98539.09;4122224;28;20734;-52
2022/07/20 06:52:46;;;;;;;8.68;5.22;;;;;;;26.94;44.06;98538.59;4114150;28;20717;-53
2022/07/20 06:54:48;;;;;;;8.02;5.53;;;;;;;27.16;44.12;98542.84;4117792;28;20243;-52
2022/07/20 06:56:50;;;;;;;6.07;5.00;;;;;;;27.28;43.42;98543.66;4122219;28;20248;-53
2022/07/20 06:58:52;;;;;;;5.13;4.40;;;;;;;27.36;43.23;98539.03;4140357;28;20213;-53
2022/07/20 07:00:54;;;;;;;5.80;5.40;;;;;;;27.42;42.97;98544.03;4138053;28;20703;-53
2022/07/20 07:02:56;;;;;;;8.73;4.60;;;;;;;27.66;42.40;98537.47;4124409;28;20213;-53
2022/07/20 07:04:59;;;;;;;7.18;4.88;;;;;;;27.63;42.69;98539.00;4137486;28;20295;-52
2022/07/20 07:07:02;;;;;;;6.80;4.78;;;;;;;27.79;42.73;98536.25;4124831;28;20249;-52
2022/07/20 07:09:04;;;;;;;10.43;4.88;;;;;;;27.86;42.48;98542.84;4118853;28;20206;-52
2022/07/20 07:11:06;;;;;;;5.45;4.90;;;;;;;27.98;42.04;98537.16;4117265;28;20611;-52
2022/07/20 07:13:07;;;;;;;5.15;4.55;;;;;;;28.07;41.69;98537.78;4137831;28;20272;-54
2022/07/20 07:15:10;;;;;;;20.80;5.93;;;;;;;28.25;41.91;98536.22;4128815;28;20240;-52
2022/07/20 07:17:12;;;;;;;8.45;5.25;;;;;;;28.48;41.47;98530.78;4134558;28;20212;-52
2022/07/20 07:19:14;;;;;;;8.77;5.22;;;;;;;28.52;41.59;98538.09;4120340;28;20224;-53
2022/07/20 07:21:15;;;;;;;9.27;5.10;;;;;;;28.73;41.07;98543.44;4122112;28;20229;-53
2022/07/20 07:23:17;;;;;;;5.07;4.68;;;;;;;28.84;41.23;98550.13;4127093;28;20201;-53
2022/07/20 07:25:19;;;;;;;10.73;4.43;;;;;;;29.08;40.55;98545.06;4120373;28;20701;-52
2022/07/20 07:27:21;;;;;;;8.00;4.80;;;;;;;29.04;40.23;98555.44;4119328;28;20585;-53
2022/07/20 07:29:24;;;;;;;9.30;5.10;;;;;;;29.18;40.37;98552.91;4135179;28;20210;-52
2022/07/20 07:31:26;;;;;;;7.43;5.30;;;;;;;29.34;40.61;98564.97;4121588;28;20229;-53
2022/07/20 07:33:27;;;;;;;12.10;6.03;;;;;;;29.58;40.15;98564.66;4119143;28;20236;-52
2022/07/20 07:35:29;;;;;;;20.92;5.65;;;;;;;29.73;39.67;98574.22;4116064;28;20252;-52
2022/07/20 07:37:31;;;;;;;8.18;6.15;;;;;;;29.86;39.92;98573.66;4130420;28;20209;-52
2022/07/20 07:39:33;;;;;;;11.73;5.40;;;;;;;29.99;40.07;98569.47;4120661;28;20261;-52
2022/07/20 07:41:35;;;;;;;6.55;5.53;;;;;;;30.14;38.78;98562.94;4115924;28;20212;-51
2022/07/20 07:43:37;;;;;;;7.43;5.45;;;;;;;30.09;38.63;98574.53;4124612;28;20269;-51
2022/07/20 07:45:39;;;;;;;12.93;6.40;;;;;;;30.22;38.72;98578.81;4121674;28;20206;-52
2022/07/20 07:47:42;;;;;;;11.35;4.97;;;;;;;30.21;38.75;98579.19;4117338;28;20210;-52
2022/07/20 07:49:44;;;;;;;6.13;5.03;;;;;;;30.28;38.92;98582.94;4119940;28;20588;-51
2022/07/20 07:51:50;;;;;;;7.85;5.55;;;;;;;30.31;38.26;98585.00;4117983;28;20660;-51
2022/07/20 07:53:52;;;;;;;6.32;5.47;;;;;;;30.30;38.59;98583.38;4123965;28;20836;-52
2022/07/20 07:55:54;;;;;;;18.10;5.07;;;;;;;30.44;37.89;98589.25;4118545;28;20221;-51
2022/07/20 07:57:55;;;;;;;14.07;5.40;;;;;;;30.33;37.71;98595.94;4120882;28;20283;-52
2022/07/20 08:00:09;;;;;;;5.53;4.97;;;;;;;30.34;37.54;98594.75;4116810;28;20740;-52
2022/07/20 08:02:11;;;;;;;6.10;5.55;;;;;;;30.64;37.75;98602.13;4118074;28;20272;-51
2022/07/20 08:04:13;;;;;;;7.05;5.35;;;;;;;30.55;37.44;98600.75;4121662;28;20194;-51
2022/07/20 08:06:14;;;;;;;10.82;4.60;;;;;;;30.60;37.34;98612.56;4123720;28;20257;-52
2022/07/20 08:08:16;;;;;;;5.65;4.78;;;;;;;30.49;37.58;98607.91;4119232;28;20205;-51
2022/07/20 08:10:18;;;;;;;10.98;5.28;;;;;;;30.76;37.13;98607.59;4122025;28;21248;-52
2022/07/20 08:12:20;;;;;;;9.27;4.45;;;;;;;30.77;37.77;98612.03;4126955;28;20205;-52
2022/07/20 08:14:22;;;;;;;5.18;4.78;;;;;;;30.86;37.87;98621.06;4126563;28;20640;-52
2022/07/20 08:16:24;;;;;;;7.95;5.35;;;;;;;30.86;37.35;98621.06;4108424;28;20564;-52
2022/07/20 08:18:26;;;;;;;8.65;5.18;;;;;;;30.89;37.93;98620.31;4115170;28;20638;-52
2022/07/20 08:20:28;;;;;;;13.13;4.75;;;;;;;30.83;37.10;98621.84;4111814;28;21408;-53
2022/07/20 08:22:29;;;;;;;11.32;4.95;;;;;;;30.72;36.59;98623.66;4123446;28;20224;-52
2022/07/20 08:24:31;;;;;;;16.52;4.60;;;;;;;30.81;36.95;98627.06;4123577;28;20202;-52
2022/07/20 08:26:33;;;;;;;5.03;4.35;;;;;;;30.94;36.82;98622.81;4116856;28;20218;-52
2022/07/20 08:28:36;;;;;;;5.80;4.88;;;;;;;30.83;36.56;98630.31;4120209;28;20300;-53
2022/07/20 08:30:40;;;;;;;5.40;4.63;;;;;;;30.93;36.53;98628.84;4111333;28;20655;-52
2022/07/20 08:32:54;;;;;;;6.05;4.65;;;;;;;30.93;36.54;98621.19;4120161;28;20237;-53
2022/07/20 08:34:59;;;;;;;10.02;4.90;;;;;;;31.18;37.03;98628.03;4121421;28;20221;-52
2022/07/20 08:37:02;;;;;;;7.13;4.55;;;;;;;31.64;35.83;98618.16;4128126;28;20280;-52
2022/07/20 08:39:05;;;;;;;5.97;4.80;;;;;;;31.58;36.15;98614.03;4111903;28;20258;-52
2022/07/20 08:41:08;;;;;;;7.43;6.00;;;;;;;31.85;35.55;98618.44;4131306;28;20225;-52
2022/07/20 08:43:10;;;;;;;6.55;4.30;;;;;;;31.91;35.92;98617.72;4143179;28;20567;-52
2022/07/20 08:45:11;;;;;;;10.13;4.75;;;;;;;31.91;35.88;98628.22;4143341;28;20208;-52
2022/07/20 08:47:14;;;;;;;15.35;5.95;;;;;;;31.67;35.48;98623.06;4125931;28;20206;-52
2022/07/20 08:49:16;;;;;;;6.18;5.35;;;;;;;31.17;35.55;98620.75;4140640;28;20278;-52
2022/07/20 08:51:18;;;;;;;23.15;5.85;;;;;;;31.26;35.80;98624.09;4123061;28;20613;-52
2022/07/20 08:53:20;;;;;;;5.10;4.70;;;;;;;30.90;35.60;98630.44;4136867;28;20241;-53
2022/07/20 08:55:22;;;;;;;13.57;4.65;;;;;;;30.63;36.06;98620.28;4108064;28;20514;-52
2022/07/20 08:57:25;;;;;;;8.05;5.15;;;;;;;30.88;35.81;98621.50;4120313;28;21200;-52
2022/07/20 08:59:26;;;;;;;6.22;3.67;;;;;;;31.36;36.35;98629.09;4130665;28;20746;-52
2022/07/20 09:01:28;;;;;;;6.72;4.72;;;;;;;31.54;35.81;98630.16;4129545;28;20206;-53
2022/07/20 09:03:30;;;;;;;5.70;4.65;;;;;;;31.68;35.72;98636.00;4129099;28;20260;-52
2022/07/20 09:05:34;;;;;;;8.70;4.75;;;;;;;31.48;34.55;98645.03;4124265;28;20758;-53
2022/07/20 09:07:44;;;;;;;9.25;5.20;;;;;;;31.12;34.86;98640.84;4112785;28;20253;-52
2022/07/20 09:10:00;;;;;;;6.25;4.97;;;;;;;31.13;35.99;98647.34;4130413;28;20328;-52
2022/07/20 09:12:03;;;;;;;6.55;5.95;;;;;;;31.10;35.75;98642.44;4128144;28;20206;-53
2022/07/20 09:14:04;;;;;;;6.78;6.10;;;;;;;30.87;36.42;98639.69;4139333;28;20320;-52
2022/07/20 09:16:06;;;;;;;10.32;6.03;;;;;;;30.77;36.74;98634.66;4138469;28;20197;-53
2022/07/20 09:18:14;;;;;;;6.10;5.05;;;;;;;30.43;37.16;98635.66;4122083;28;20205;-52
2022/07/20 09:20:15;;;;;;;5.10;4.68;;;;;;;30.47;37.06;98630.91;4137877;28;20229;-52
2022/07/20 09:22:39;;;;;;;5.65;5.15;;;;;;;30.59;37.48;98627.84;4119189;28;20269;-52
2022/07/20 09:24:41;;;;;;;6.05;5.28;;;;;;;30.91;36.62;98625.59;4117100;28;20202;-52
2022/07/20 09:26:43;;;;;;;10.35;5.35;;;;;;;30.94;36.39;98617.16;4135810;28;20209;-51
2022/07/20 09:28:49;;;;;;;8.20;5.28;;;;;;;31.08;36.07;98606.06;4138274;28;20223;-51
2022/07/20 09:30:54;;;;;;;12.38;5.05;;;;;;;31.33;35.61;98601.59;4113511;28;20254;-51
2022/07/20 09:32:56;;;;;;;11.68;5.78;;;;;;;31.59;36.01;98607.16;4129677;28;20206;-51
2022/07/20 09:35:01;;;;;;;5.75;5.15;;;;;;;32.03;35.51;98619.44;4126997;28;20225;-51
2022/07/20 09:37:16;;;;;;;6.97;4.07;;;;;;;32.09;34.39;98617.91;4137236;28;20209;-51
2022/07/20 09:39:20;;;;;;;19.92;6.43;;;;;;;31.91;35.82;98614.03;4122536;28;20213;-51